Time;durP1;ratioP1;P1;durP2;ratioP2;P2;SDS_P1;SDS_P2;PMS_P1;PMS_P2;Temp;Humidity;BMP_temperature;BMP_pressure;BME280_temperature;BME280_humidity;BME280_pressure;Samples;Min_cycle;Max_cycle;Signal;HPM_P1;HPM_P2
2023/07/08 00:04:22;;;;;;;6.82;3.92;;;;;;;;;;10338519;28;20075;-58
2023/07/08 00:09:20;;;;;;;4.47;3.53;;;;;;;;;;10331285;28;20513;-59
2023/07/08 00:14:20;;;;;;;5.95;4.10;;;;;;;;;;10337378;28;20070;-58
2023/07/08 00:19:19;;;;;;;6.78;3.78;;;;;;;;;;10339793;28;20093;-58
2023/07/08 00:24:17;;;;;;;8.25;4.40;;;;;;;;;;10339325;28;20078;-59
2023/07/08 00:29:16;;;;;;;5.50;4.97;;;;;;;;;;10336706;28;20079;-59
2023/07/08 00:34:16;;;;;;;9.65;5.45;;;;;;;;;;10323659;28;20079;-59
2023/07/08 00:39:15;;;;;;;6.40;4.60;;;;;;;;;;10338081;28;20490;-58
2023/07/08 00:44:13;;;;;;;5.13;4.63;;;;;;;;;;10332707;28;20071;-59
2023/07/08 00:49:20;;;;;;;7.65;4.65;;;;;;;;;;10313327;28;20071;-59
2023/07/08 00:54:19;;;;;;;9.20;4.15;;;;;;;;;;10330643;28;20064;-59
2023/07/08 00:59:20;;;;;;;7.30;4.47;;;;;;;;;;10319486;28;20102;-58
2023/07/08 01:04:23;;;;;;;6.10;4.53;;;;;;;;;;10329271;28;20080;-58
2023/07/08 01:09:22;;;;;;;5.93;4.53;;;;;;;;;;10331286;28;20519;-58
2023/07/08 01:14:21;;;;;;;6.47;4.38;;;;;;;;;;10314376;28;20049;-58
2023/07/08 01:19:32;;;;;;;8.38;4.88;;;;;;;;;;10331771;28;20060;-58
2023/07/08 01:24:33;;;;;;;8.55;4.50;;;;;;;;;;10334277;28;20078;-58
2023/07/08 01:29:32;;;;;;;5.65;4.32;;;;;;;;;;10314128;28;20048;-58
2023/07/08 01:34:30;;;;;;;7.72;4.53;;;;;;;;;;10303141;28;20492;-58
2023/07/08 01:39:29;;;;;;;12.95;5.80;;;;;;;;;;10313998;28;20072;-58
2023/07/08 01:44:32;;;;;;;8.50;4.82;;;;;;;;;;10317841;28;20535;-58
2023/07/08 01:49:31;;;;;;;9.27;4.97;;;;;;;;;;10277147;28;1112426;-58
2023/07/08 01:54:29;;;;;;;7.20;4.70;;;;;;;;;;10336389;28;20072;-57
2023/07/08 01:59:29;;;;;;;6.45;5.35;;;;;;;;;;10316216;28;20082;-58
2023/07/08 02:04:30;;;;;;;5.60;4.50;;;;;;;;;;10324243;28;20079;-58
2023/07/08 02:09:28;;;;;;;8.68;5.28;;;;;;;;;;10319424;28;20056;-58
2023/07/08 02:14:27;;;;;;;8.07;4.57;;;;;;;;;;10331414;28;20075;-58
2023/07/08 02:19:27;;;;;;;6.97;4.80;;;;;;;;;;10333996;28;20072;-58
2023/07/08 02:24:25;;;;;;;17.00;6.78;;;;;;;;;;10332116;28;20087;-59
2023/07/08 02:29:24;;;;;;;8.93;5.70;;;;;;;;;;10333206;28;20072;-59
2023/07/08 02:34:22;;;;;;;9.80;6.20;;;;;;;;;;10312265;28;20516;-58
2023/07/08 02:39:22;;;;;;;5.70;4.95;;;;;;;;;;10329150;28;20072;-59
2023/07/08 02:44:20;;;;;;;12.90;7.03;;;;;;;;;;10332834;28;20067;-58
2023/07/08 02:49:18;;;;;;;14.95;5.90;;;;;;;;;;10314727;28;20079;-58
2023/07/08 02:54:16;;;;;;;8.82;5.88;;;;;;;;;;10327145;28;20082;-58
2023/07/08 02:59:16;;;;;;;9.73;5.75;;;;;;;;;;10328678;28;20421;-58
2023/07/08 03:04:14;;;;;;;7.75;5.57;;;;;;;;;;10310637;28;20524;-59
2023/07/08 03:09:13;;;;;;;7.55;5.85;;;;;;;;;;10308619;28;20052;-60
2023/07/08 03:14:11;;;;;;;7.97;5.72;;;;;;;;;;10308994;28;20075;-59
2023/07/08 03:19:14;;;;;;;9.40;5.90;;;;;;;;;;10311759;28;20068;-59
2023/07/08 03:24:17;;;;;;;10.73;5.70;;;;;;;;;;10331473;28;20495;-59
2023/07/08 03:29:18;;;;;;;12.93;6.63;;;;;;;;;;10335497;28;20081;-59
2023/07/08 03:34:19;;;;;;;8.23;5.95;;;;;;;;;;10332474;28;20331;-58
2023/07/08 03:39:18;;;;;;;9.00;5.82;;;;;;;;;;10304351;28;20071;-58
2023/07/08 03:44:17;;;;;;;9.23;6.15;;;;;;;;;;10330101;28;20068;-59
2023/07/08 03:49:16;;;;;;;8.32;6.13;;;;;;;;;;10328093;28;20072;-59
2023/07/08 03:54:16;;;;;;;7.60;5.93;;;;;;;;;;10312082;28;20075;-59
2023/07/08 03:59:14;;;;;;;10.52;6.47;;;;;;;;;;10309539;28;20506;-57
2023/07/08 04:04:14;;;;;;;9.02;5.97;;;;;;;;;;10315443;28;20100;-59
2023/07/08 04:09:14;;;;;;;11.98;6.50;;;;;;;;;;10309624;28;20076;-59
2023/07/08 04:14:13;;;;;;;10.05;6.68;;;;;;;;;;10329769;28;20068;-58
2023/07/08 04:19:14;;;;;;;9.63;7.35;;;;;;;;;;10328660;28;20080;-58
2023/07/08 04:24:12;;;;;;;9.27;6.47;;;;;;;;;;10328109;28;20080;-58
2023/07/08 04:29:12;;;;;;;7.00;6.20;;;;;;;;;;10329674;28;20472;-58
2023/07/08 04:34:11;;;;;;;9.40;6.50;;;;;;;;;;10323946;28;20467;-58
2023/07/08 04:39:10;;;;;;;10.90;7.80;;;;;;;;;;10327516;28;20060;-58
2023/07/08 04:44:10;;;;;;;8.60;7.50;;;;;;;;;;10336209;28;20080;-60
2023/07/08 04:49:09;;;;;;;7.57;6.53;;;;;;;;;;10336385;28;20586;-58
2023/07/08 04:54:09;;;;;;;11.60;7.10;;;;;;;;;;10334507;28;20076;-57
2023/07/08 04:59:09;;;;;;;13.02;8.00;;;;;;;;;;10336051;28;20084;-58
2023/07/08 05:04:08;;;;;;;8.27;7.13;;;;;;;;;;10333110;28;20537;-58
2023/07/08 05:09:06;;;;;;;13.40;8.27;;;;;;;;;;10335051;28;20071;-58
2023/07/08 05:14:06;;;;;;;11.18;8.02;;;;;;;;;;10335840;28;20078;-59
2023/07/08 05:19:06;;;;;;;9.90;8.00;;;;;;;;;;10336545;28;20076;-58
2023/07/08 05:24:05;;;;;;;9.35;7.93;;;;;;;;;;10333050;28;20074;-58
2023/07/08 05:29:04;;;;;;;9.05;8.13;;;;;;;;;;10333015;28;20083;-59
2023/07/08 05:34:04;;;;;;;9.73;8.23;;;;;;;;;;10329620;28;20080;-58
2023/07/08 05:39:03;;;;;;;9.40;7.85;;;;;;;;;;10327837;28;20068;-58
2023/07/08 05:44:01;;;;;;;12.32;7.95;;;;;;;;;;10331849;28;20080;-57
2023/07/08 05:48:59;;;;;;;11.55;8.63;;;;;;;;;;10335802;28;20068;-56
2023/07/08 05:54:00;;;;;;;9.38;7.68;;;;;;;;;;10333730;28;20064;-58
2023/07/08 05:58:58;;;;;;;13.40;8.70;;;;;;;;;;10332493;28;20060;-57
2023/07/08 06:03:58;;;;;;;9.88;8.48;;;;;;;;;;10334898;28;20068;-58
2023/07/08 06:08:56;;;;;;;13.63;9.02;;;;;;;;;;10334770;28;20075;-59
2023/07/08 06:13:56;;;;;;;9.55;8.48;;;;;;;;;;10335573;28;20094;-58
2023/07/08 06:18:54;;;;;;;11.20;10.05;;;;;;;;;;10333441;28;20078;-59
2023/07/08 06:23:53;;;;;;;14.23;10.52;;;;;;;;;;10339264;28;20074;-59
2023/07/08 06:28:51;;;;;;;14.48;10.57;;;;;;;;;;10328837;28;20102;-59
2023/07/08 06:33:51;;;;;;;9.63;8.68;;;;;;;;;;10331615;28;20077;-59
2023/07/08 06:38:50;;;;;;;11.02;9.55;;;;;;;;;;10332897;28;20074;-60
2023/07/08 06:43:48;;;;;;;11.40;9.40;;;;;;;;;;10332898;28;20458;-59
2023/07/08 06:48:53;;;;;;;10.73;9.73;;;;;;;;;;10335624;28;20094;-59
2023/07/08 06:53:52;;;;;;;13.80;8.45;;;;;;;;;;10334394;28;20075;-60
2023/07/08 06:58:50;;;;;;;7.97;7.18;;;;;;;;;;10336091;28;20070;-60
2023/07/08 07:03:48;;;;;;;8.15;7.35;;;;;;;;;;10318191;28;20072;-60
2023/07/08 07:08:48;;;;;;;12.90;8.73;;;;;;;;;;10318482;28;20106;-61
2023/07/08 07:13:46;;;;;;;10.95;8.68;;;;;;;;;;10327422;28;20076;-60
2023/07/08 07:18:44;;;;;;;8.85;6.93;;;;;;;;;;10329384;28;20068;-60
2023/07/08 07:23:43;;;;;;;6.32;5.43;;;;;;;;;;10329374;28;20073;-60
2023/07/08 07:28:42;;;;;;;4.78;4.28;;;;;;;;;;10328651;28;20094;-60
2023/07/08 07:33:40;;;;;;;5.43;3.80;;;;;;;;;;10335575;28;20071;-60
2023/07/08 07:38:39;;;;;;;4.82;3.80;;;;;;;;;;10332467;28;20080;-60
2023/07/08 07:43:37;;;;;;;4.38;3.78;;;;;;;;;;10322694;28;20060;-59
2023/07/08 07:48:36;;;;;;;6.15;4.95;;;;;;;;;;10333320;28;20146;-59
2023/07/08 07:53:35;;;;;;;5.50;5.00;;;;;;;;;;10328923;28;20098;-59
2023/07/08 07:58:33;;;;;;;19.02;5.90;;;;;;;;;;10330970;28;20067;-59
2023/07/08 08:03:31;;;;;;;8.52;4.93;;;;;;;;;;10327843;28;20071;-59
2023/07/08 08:08:31;;;;;;;8.50;4.88;;;;;;;;;;10326138;28;20075;-59
2023/07/08 08:13:29;;;;;;;5.00;4.50;;;;;;;;;;10328520;28;20080;-58
2023/07/08 08:18:27;;;;;;;8.85;6.00;;;;;;;;;;10337059;28;20076;-58
2023/07/08 08:23:26;;;;;;;7.45;5.35;;;;;;;;;;10330274;28;20067;-58
2023/07/08 08:28:25;;;;;;;6.30;4.65;;;;;;;;;;10340229;28;20072;-58
2023/07/08 08:33:23;;;;;;;6.20;4.97;;;;;;;;;;10330298;28;20612;-58
2023/07/08 08:38:22;;;;;;;4.57;3.92;;;;;;;;;;10342244;28;20067;-58
2023/07/08 08:43:22;;;;;;;3.25;2.95;;;;;;;;;;10340807;28;20075;-59
2023/07/08 08:48:22;;;;;;;4.40;3.67;;;;;;;;;;10337368;28;20102;-59
2023/07/08 08:53:21;;;;;;;3.42;2.42;;;;;;;;;;10339631;28;20086;-59
2023/07/08 08:58:26;;;;;;;3.25;2.60;;;;;;;;;;10339985;28;20083;-59
2023/07/08 09:03:37;;;;;;;5.38;3.13;;;;;;;;;;10343094;28;20068;-59
2023/07/08 09:08:36;;;;;;;3.17;2.45;;;;;;;;;;10335441;28;20072;-60
2023/07/08 09:13:36;;;;;;;4.38;2.60;;;;;;;;;;10337202;28;20086;-59
2023/07/08 09:18:39;;;;;;;2.67;2.47;;;;;;;;;;10336409;28;20075;-58
2023/07/08 09:23:37;;;;;;;3.58;3.28;;;;;;;;;;10335699;28;20336;-59
2023/07/08 09:28:39;;;;;;;3.33;3.03;;;;;;;;;;10336875;28;20079;-58
2023/07/08 09:33:39;;;;;;;3.10;2.80;;;;;;;;;;10335176;28;20536;-59
2023/07/08 09:38:38;;;;;;;4.07;2.75;;;;;;;;;;10337186;28;20500;-59
2023/07/08 09:43:38;;;;;;;4.35;3.33;;;;;;;;;;10341927;28;20064;-59
2023/07/08 09:48:36;;;;;;;5.07;3.28;;;;;;;;;;10328620;28;20088;-59
2023/07/08 09:53:37;;;;;;;2.55;2.35;;;;;;;;;;10333678;28;20501;-60
2023/07/08 09:58:37;;;;;;;4.18;2.78;;;;;;;;;;10336999;28;20116;-60
2023/07/08 10:03:36;;;;;;;3.92;2.67;;;;;;;;;;10338240;28;20085;-58
2023/07/08 10:08:42;;;;;;;3.00;2.70;;;;;;;;;;10336990;28;20103;-59
2023/07/08 10:13:43;;;;;;;3.72;2.20;;;;;;;;;;10336096;28;20095;-59
2023/07/08 10:18:42;;;;;;;4.45;2.88;;;;;;;;;;10342907;28;20492;-59
2023/07/08 10:23:49;;;;;;;2.20;2.00;;;;;;;;;;10336501;28;20071;-58
2023/07/08 10:28:52;;;;;;;5.10;2.30;;;;;;;;;;10317262;28;20099;-59
2023/07/08 10:34:03;;;;;;;4.38;2.75;;;;;;;;;;10331450;28;20063;-58
2023/07/08 10:39:17;;;;;;;3.60;2.78;;;;;;;;;;10331741;28;20071;-58
2023/07/08 10:44:20;;;;;;;3.22;2.45;;;;;;;;;;10332698;28;20078;-60
2023/07/08 10:49:27;;;;;;;2.88;2.67;;;;;;;;;;10329810;28;20501;-57
2023/07/08 10:54:36;;;;;;;5.75;5.10;;;;;;;;;;10327220;28;20064;-58
2023/07/08 10:59:42;;;;;;;3.50;2.80;;;;;;;;;;10328507;28;20075;-59
2023/07/08 11:04:44;;;;;;;9.00;2.83;;;;;;;;;;10330593;28;20067;-58
2023/07/08 11:09:54;;;;;;;3.30;3.00;;;;;;;;;;10321057;28;20094;-60
2023/07/08 11:14:55;;;;;;;3.47;3.17;;;;;;;;;;10327837;28;20482;-58
2023/07/08 11:19:56;;;;;;;8.80;6.50;;;;;;;;;;10330319;28;20073;-59
2023/07/08 11:24:56;;;;;;;4.00;3.70;;;;;;;;;;10325936;28;20454;-59
2023/07/08 11:29:56;;;;;;;5.20;4.70;;;;;;;;;;10338052;28;20068;-59
2023/07/08 11:34:56;;;;;;;6.22;4.30;;;;;;;;;;10325751;28;20514;-58
2023/07/08 11:39:58;;;;;;;4.63;4.05;;;;;;;;;;10326790;28;20076;-59
2023/07/08 11:44:57;;;;;;;5.03;4.53;;;;;;;;;;10328556;28;20068;-59
2023/07/08 11:49:56;;;;;;;8.48;4.78;;;;;;;;;;10334853;28;20088;-59
2023/07/08 11:55:03;;;;;;;5.05;4.47;;;;;;;;;;10341598;28;20082;-59
2023/07/08 12:00:18;;;;;;;5.63;4.82;;;;;;;;;;10341274;28;20086;-58
2023/07/08 12:05:17;;;;;;;5.10;4.25;;;;;;;;;;10333454;28;20076;-59
2023/07/08 12:10:19;;;;;;;5.10;3.65;;;;;;;;;;10336578;28;20092;-59
2023/07/08 12:15:21;;;;;;;5.47;3.78;;;;;;;;;;10343082;28;20068;-59
2023/07/08 12:20:22;;;;;;;4.25;3.85;;;;;;;;;;10333310;28;20434;-59
2023/07/08 12:25:25;;;;;;;5.00;4.15;;;;;;;;;;10339336;28;20074;-59
2023/07/08 12:30:24;;;;;;;7.30;3.70;;;;;;;;;;10334170;28;20082;-60
2023/07/08 12:35:24;;;;;;;6.00;4.57;;;;;;;;;;10338201;28;20078;-60
2023/07/08 12:40:25;;;;;;;4.57;4.00;;;;;;;;;;10332450;28;20504;-60
2023/07/08 12:45:25;;;;;;;7.65;3.38;;;;;;;;;;10338349;28;20072;-60
2023/07/08 12:50:23;;;;;;;5.85;3.92;;;;;;;;;;10333747;28;20083;-59
2023/07/08 12:55:21;;;;;;;10.18;3.90;;;;;;;;;;10339428;28;20067;-60
2023/07/08 13:00:24;;;;;;;4.25;3.83;;;;;;;;;;10334222;28;20098;-59
2023/07/08 13:05:22;;;;;;;5.65;4.38;;;;;;;;;;10336999;28;20078;-59
2023/07/08 13:10:22;;;;;;;11.52;4.05;;;;;;;;;;10340954;28;20072;-59
2023/07/08 13:15:22;;;;;;;5.03;4.00;;;;;;;;;;10336623;28;20083;-61
2023/07/08 13:20:21;;;;;;;5.90;3.85;;;;;;;;;;10340031;28;20071;-60
2023/07/08 13:25:20;;;;;;;4.20;3.80;;;;;;;;;;10338726;28;20065;-60
2023/07/08 13:30:21;;;;;;;5.60;4.03;;;;;;;;;;10334779;28;20082;-60
2023/07/08 13:35:25;;;;;;;6.22;3.58;;;;;;;;;;10335303;28;20072;-60
2023/07/08 13:40:23;;;;;;;;;;;;;;;;;;10334179;28;20067;-60
2023/07/08 13:45:24;;;;;;;5.72;3.40;;;;;;;;;;10335585;28;19966;-60
2023/07/08 13:50:25;;;;;;;6.15;3.50;;;;;;;;;;10336079;28;20084;-60
2023/07/08 13:55:25;;;;;;;3.53;3.22;;;;;;;;;;10336226;28;20079;-60
2023/07/08 14:00:23;;;;;;;5.25;3.80;;;;;;;;;;10336400;28;20491;-60
2023/07/08 14:05:21;;;;;;;9.25;4.97;;;;;;;;;;10337146;28;20606;-60
2023/07/08 14:10:20;;;;;;;5.45;4.13;;;;;;;;;;10335008;28;20102;-59
2023/07/08 14:15:19;;;;;;;5.30;3.60;;;;;;;;;;10331418;28;20079;-60
2023/07/08 14:20:18;;;;;;;6.80;3.50;;;;;;;;;;10335104;28;20102;-59
2023/07/08 14:25:20;;;;;;;7.97;3.47;;;;;;;;;;10331739;28;20075;-60
2023/07/08 14:30:21;;;;;;;5.68;3.63;;;;;;;;;;10328366;28;20071;-59
2023/07/08 14:35:23;;;;;;;4.93;3.85;;;;;;;;;;10337139;28;20094;-59
2023/07/08 14:40:24;;;;;;;12.35;4.57;;;;;;;;;;10334024;28;20342;-60
2023/07/08 14:45:24;;;;;;;6.88;3.83;;;;;;;;;;10336782;28;20083;-60
2023/07/08 14:50:22;;;;;;;4.82;4.32;;;;;;;;;;10332018;28;20079;-59
2023/07/08 14:55:20;;;;;;;8.75;4.82;;;;;;;;;;10341584;28;20064;-60
2023/07/08 15:00:19;;;;;;;5.40;3.08;;;;;;;;;;10338114;28;20064;-60
2023/07/08 15:05:20;;;;;;;5.97;3.40;;;;;;;;;;10336088;28;20082;-59
2023/07/08 15:10:24;;;;;;;5.35;3.30;;;;;;;;;;10331140;28;20079;-59
2023/07/08 15:15:31;;;;;;;5.07;3.28;;;;;;;;;;10325964;28;20145;-59
2023/07/08 15:20:32;;;;;;;11.60;4.82;;;;;;;;;;10327596;28;20457;-59
2023/07/08 15:25:33;;;;;;;5.25;3.78;;;;;;;;;;10322834;28;20429;-60
2023/07/08 15:30:31;;;;;;;5.82;3.35;;;;;;;;;;10330176;28;20079;-59
2023/07/08 15:35:32;;;;;;;4.53;4.07;;;;;;;;;;10328064;28;20068;-58
2023/07/08 15:40:31;;;;;;;9.05;4.25;;;;;;;;;;10326875;28;20179;-57
2023/07/08 15:45:31;;;;;;;4.50;3.90;;;;;;;;;;10330732;28;20068;-59
2023/07/08 15:50:31;;;;;;;5.82;3.97;;;;;;;;;;10331197;28;20090;-59
2023/07/08 15:55:30;;;;;;;3.92;3.15;;;;;;;;;;10329574;28;20064;-60
2023/07/08 16:00:30;;;;;;;4.53;3.08;;;;;;;;;;10329728;28;20060;-59
2023/07/08 16:05:28;;;;;;;6.70;3.25;;;;;;;;;;10330108;28;20084;-59
2023/07/08 16:10:28;;;;;;;11.50;5.57;;;;;;;;;;10330592;28;20095;-59
2023/07/08 16:15:28;;;;;;;6.22;4.20;;;;;;;;;;10331899;28;20064;-59
2023/07/08 16:20:28;;;;;;;7.05;3.90;;;;;;;;;;10327984;28;20067;-59
2023/07/08 16:25:29;;;;;;;12.05;5.72;;;;;;;;;;10333039;28;20071;-59
2023/07/08 16:30:28;;;;;;;4.28;3.67;;;;;;;;;;10327495;28;20068;-60
2023/07/08 16:35:26;;;;;;;21.65;14.55;;;;;;;;;;10330936;28;20075;-59
2023/07/08 16:40:26;;;;;;;4.90;4.43;;;;;;;;;;10336150;28;20079;-59
2023/07/08 16:45:26;;;;;;;7.10;4.78;;;;;;;;;;10339555;28;20082;-60
2023/07/08 16:50:27;;;;;;;4.07;3.35;;;;;;;;;;10337513;28;20094;-59
2023/07/08 16:55:25;;;;;;;8.00;4.50;;;;;;;;;;10336630;28;20076;-60
2023/07/08 17:00:23;;;;;;;5.03;4.47;;;;;;;;;;10330254;28;20068;-59
2023/07/08 17:05:23;;;;;;;8.52;4.57;;;;;;;;;;10340194;28;20079;-60
2023/07/08 17:10:22;;;;;;;7.45;5.93;;;;;;;;;;10331357;28;20102;-59
2023/07/08 17:15:21;;;;;;;10.38;6.35;;;;;;;;;;10338147;28;20069;-59
2023/07/08 17:20:20;;;;;;;7.03;4.28;;;;;;;;;;10331505;28;20067;-60
2023/07/08 17:25:25;;;;;;;7.70;5.47;;;;;;;;;;10328333;28;20159;-60
2023/07/08 17:30:24;;;;;;;12.50;4.80;;;;;;;;;;10330287;28;20075;-59
2023/07/08 17:35:23;;;;;;;6.15;4.85;;;;;;;;;;10337230;28;20068;-59
2023/07/08 17:40:24;;;;;;;5.65;5.05;;;;;;;;;;10326679;28;20086;-59
2023/07/08 17:45:25;;;;;;;18.35;8.70;;;;;;;;;;10333103;28;20493;-59
2023/07/08 17:50:23;;;;;;;12.88;7.63;;;;;;;;;;10338001;28;20079;-59
2023/07/08 17:55:25;;;;;;;40.50;14.57;;;;;;;;;;10335246;28;20477;-59
2023/07/08 18:00:24;;;;;;;81.65;31.58;;;;;;;;;;10333652;28;20071;-60
2023/07/08 18:05:23;;;;;;;30.63;13.38;;;;;;;;;;10333329;28;20068;-60
2023/07/08 18:10:24;;;;;;;17.48;8.35;;;;;;;;;;10313249;28;20083;-60
2023/07/08 18:15:25;;;;;;;19.23;6.82;;;;;;;;;;10332363;28;20079;-60
2023/07/08 18:20:27;;;;;;;6.22;4.05;;;;;;;;;;10334869;28;20078;-60
2023/07/08 18:25:27;;;;;;;18.27;4.43;;;;;;;;;;10333639;28;20075;-60
2023/07/08 18:30:28;;;;;;;14.00;4.82;;;;;;;;;;10332057;28;20075;-60
2023/07/08 18:35:27;;;;;;;5.20;3.97;;;;;;;;;;10332055;28;20098;-59
2023/07/08 18:40:27;;;;;;;7.50;3.88;;;;;;;;;;10330681;28;20072;-60
2023/07/08 18:45:27;;;;;;;6.00;4.13;;;;;;;;;;10330027;28;20565;-60
2023/07/08 18:50:26;;;;;;;4.72;3.88;;;;;;;;;;10327438;28;20083;-61
2023/07/08 18:55:25;;;;;;;7.28;4.63;;;;;;;;;;10312452;28;20516;-60
2023/07/08 19:00:23;;;;;;;6.40;4.15;;;;;;;;;;10332092;28;20063;-60
2023/07/08 19:05:23;;;;;;;9.75;6.13;;;;;;;;;;10333730;28;20075;-60
2023/07/08 19:10:25;;;;;;;6.07;5.25;;;;;;;;;;10330399;28;20075;-61
2023/07/08 19:15:25;;;;;;;4.82;3.63;;;;;;;;;;10327681;28;20496;-59
2023/07/08 19:20:26;;;;;;;4.63;3.63;;;;;;;;;;10333547;28;20083;-60
2023/07/08 19:25:25;;;;;;;3.97;3.50;;;;;;;;;;10328606;28;20070;-60
2023/07/08 19:30:23;;;;;;;5.05;2.95;;;;;;;;;;10331698;28;20067;-60
2023/07/08 19:35:23;;;;;;;7.07;3.97;;;;;;;;;;10329675;28;20080;-60
2023/07/08 19:40:26;;;;;;;6.55;4.00;;;;;;;;;;10330555;28;20067;-60
2023/07/08 19:45:26;;;;;;;3.97;3.60;;;;;;;;;;10315972;28;20075;-61
2023/07/08 19:50:27;;;;;;;4.28;3.72;;;;;;;;;;10329720;28;20085;-60
2023/07/08 19:55:27;;;;;;;4.22;3.55;;;;;;;;;;10330366;28;20067;-60
2023/07/08 20:00:26;;;;;;;6.95;3.42;;;;;;;;;;10330893;28;20096;-59
2023/07/08 20:05:28;;;;;;;5.07;4.28;;;;;;;;;;10330149;28;20072;-60
2023/07/08 20:10:28;;;;;;;12.30;5.18;;;;;;;;;;10329592;28;20064;-59
2023/07/08 20:15:28;;;;;;;9.73;6.57;;;;;;;;;;10334770;28;20103;-59
2023/07/08 20:20:27;;;;;;;5.88;4.63;;;;;;;;;;10335715;28;20080;-60
2023/07/08 20:25:25;;;;;;;10.35;3.70;;;;;;;;;;10325765;28;20075;-59
2023/07/08 20:30:26;;;;;;;5.78;4.35;;;;;;;;;;10341513;28;20079;-60
2023/07/08 20:35:25;;;;;;;6.80;3.75;;;;;;;;;;10336928;28;20063;-60
2023/07/08 20:40:24;;;;;;;3.85;3.45;;;;;;;;;;10332278;28;20068;-60
2023/07/08 20:45:27;;;;;;;6.05;3.97;;;;;;;;;;10343470;28;20083;-59
2023/07/08 20:50:26;;;;;;;4.75;3.88;;;;;;;;;;10324700;28;20091;-59
2023/07/08 20:55:24;;;;;;;6.85;4.70;;;;;;;;;;10339861;28;20820;-59
2023/07/08 21:00:25;;;;;;;4.72;3.70;;;;;;;;;;10337683;28;20082;-59
2023/07/08 21:05:24;;;;;;;11.55;5.40;;;;;;;;;;10340145;28;20068;-59
2023/07/08 21:10:23;;;;;;;5.97;3.65;;;;;;;;;;10337648;28;20082;-59
2023/07/08 21:15:24;;;;;;;5.63;3.15;;;;;;;;;;10336973;28;20067;-59
2023/07/08 21:20:25;;;;;;;6.18;3.83;;;;;;;;;;10334135;28;20075;-60
2023/07/08 21:25:25;;;;;;;4.55;3.67;;;;;;;;;;10334505;28;20067;-59
2023/07/08 21:30:25;;;;;;;3.60;3.30;;;;;;;;;;10329063;28;20080;-59
2023/07/08 21:35:25;;;;;;;4.40;4.00;;;;;;;;;;10335952;28;20064;-60
2023/07/08 21:40:27;;;;;;;5.30;4.45;;;;;;;;;;10322870;28;20075;-59
2023/07/08 21:45:26;;;;;;;6.38;3.70;;;;;;;;;;10335174;28;20614;-60
2023/07/08 21:50:26;;;;;;;4.75;3.50;;;;;;;;;;10335822;28;20091;-60
2023/07/08 21:55:24;;;;;;;9.10;4.10;;;;;;;;;;10333816;28;20082;-60
2023/07/08 22:00:22;;;;;;;9.63;4.57;;;;;;;;;;10329457;28;20078;-60
2023/07/08 22:05:37;;;;;;;7.40;3.72;;;;;;;;;;10340952;28;20084;-59
2023/07/08 22:10:35;;;;;;;6.35;3.45;;;;;;;;;;10330096;28;20087;-60
2023/07/08 22:15:34;;;;;;;9.45;3.25;;;;;;;;;;10332714;28;20507;-60
2023/07/08 22:20:32;;;;;;;5.10;4.18;;;;;;;;;;10332987;28;20079;-60
2023/07/08 22:25:31;;;;;;;3.85;3.45;;;;;;;;;;10333647;28;20072;-59
2023/07/08 22:30:30;;;;;;;6.15;3.88;;;;;;;;;;10332125;28;20496;-60
2023/07/08 22:35:30;;;;;;;5.70;3.75;;;;;;;;;;10332101;28;20084;-59
2023/07/08 22:40:29;;;;;;;5.88;3.80;;;;;;;;;;10331474;28;20074;-60
2023/07/08 22:45:29;;;;;;;7.78;3.55;;;;;;;;;;10332233;28;20457;-60
2023/07/08 22:50:29;;;;;;;8.35;4.03;;;;;;;;;;10332065;28;20084;-59
2023/07/08 22:55:30;;;;;;;10.05;4.53;;;;;;;;;;10331055;28;20063;-59
2023/07/08 23:00:31;;;;;;;5.68;4.03;;;;;;;;;;10331042;28;20079;-59
2023/07/08 23:05:29;;;;;;;5.32;3.97;;;;;;;;;;10331332;28;20505;-60
2023/07/08 23:10:27;;;;;;;6.25;3.90;;;;;;;;;;10331301;28;20080;-59
2023/07/08 23:15:26;;;;;;;4.70;3.50;;;;;;;;;;10331939;28;20544;-59
2023/07/08 23:20:25;;;;;;;4.55;3.55;;;;;;;;;;10331259;28;20548;-60
2023/07/08 23:25:23;;;;;;;4.97;3.92;;;;;;;;;;10330559;28;20084;-60
2023/07/08 23:30:21;;;;;;;4.43;3.78;;;;;;;;;;10331153;28;20146;-60
2023/07/08 23:35:20;;;;;;;7.75;3.90;;;;;;;;;;10330548;28;20473;-59
2023/07/08 23:40:20;;;;;;;7.55;4.22;;;;;;;;;;10330153;28;20079;-60
2023/07/08 23:45:18;;;;;;;6.32;3.40;;;;;;;;;;10329943;28;20087;-60
2023/07/08 23:50:19;;;;;;;4.68;3.60;;;;;;;;;;10329428;28;20076;-59
2023/07/08 23:55:17;;;;;;;7.18;3.55;;;;;;;;;;10331502;28;20075;-59
